Time;durP1;ratioP1;P1;durP2;ratioP2;P2;SDS_P1;SDS_P2;PMS_P1;PMS_P2;Temp;Humidity;BMP_temperature;BMP_pressure;BME280_temperature;BME280_humidity;BME280_pressure;Samples;Min_cycle;Max_cycle;Signal;HPM_P1;HPM_P2
2023/09/02 00:00:04;;;;;;;2.90;1.65;;;15.90;99.90;;;;;;5020152;28;20088;-70
2023/09/02 00:02:31;;;;;;;2.22;1.60;;;15.90;99.90;;;;;;5020547;28;20091;-69
2023/09/02 00:04:57;;;;;;;2.83;1.63;;;15.80;99.90;;;;;;5020053;28;20022;-65
2023/09/02 00:07:22;;;;;;;2.65;1.55;;;15.80;99.90;;;;;;5020358;28;20029;-65
2023/09/02 00:09:48;;;;;;;2.17;1.30;;;15.80;99.90;;;;;;5019852;28;20101;-66
2023/09/02 00:12:13;;;;;;;3.08;1.33;;;15.80;99.90;;;;;;5019581;28;20026;-65
2023/09/02 00:14:39;;;;;;;2.97;1.40;;;15.80;99.90;;;;;;5019467;28;20018;-70
2023/09/02 00:17:05;;;;;;;5.47;1.58;;;15.80;99.90;;;;;;5020286;28;20025;-70
2023/09/02 00:19:30;;;;;;;1.92;1.40;;;15.80;99.90;;;;;;5019832;28;20026;-70
2023/09/02 00:21:56;;;;;;;2.47;1.50;;;15.80;99.90;;;;;;5019684;28;20030;-70
2023/09/02 00:24:21;;;;;;;1.52;1.42;;;15.80;99.90;;;;;;5019361;28;20103;-70
2023/09/02 00:26:47;;;;;;;2.78;1.92;;;15.70;99.90;;;;;;5019386;28;20030;-64
2023/09/02 00:29:12;;;;;;;2.72;1.85;;;15.80;99.90;;;;;;5020032;28;20057;-64
2023/09/02 00:31:38;;;;;;;4.72;2.30;;;15.80;99.90;;;;;;5019545;28;20018;-69
2023/09/02 00:34:04;;;;;;;6.72;2.10;;;15.80;99.90;;;;;;5020210;28;20041;-70
2023/09/02 00:36:30;;;;;;;3.78;2.17;;;15.70;99.90;;;;;;5020013;28;20065;-70
2023/09/02 00:38:59;;;;;;;2.88;1.88;;;15.70;99.90;;;;;;5019501;28;20026;-70
2023/09/02 00:41:31;;;;;;;3.75;1.65;;;15.70;99.90;;;;;;5018208;28;20061;-70
2023/09/02 00:43:57;;;;;;;4.35;1.85;;;15.70;99.90;;;;;;5019637;28;20053;-65
2023/09/02 00:46:24;;;;;;;3.33;2.45;;;15.70;99.90;;;;;;5019204;28;20117;-64
2023/09/02 00:48:49;;;;;;;3.22;2.13;;;15.70;99.90;;;;;;5019853;28;20026;-66
2023/09/02 00:51:15;;;;;;;7.43;2.10;;;15.70;99.90;;;;;;5018646;28;20052;-64
2023/09/02 00:53:42;;;;;;;2.33;1.88;;;15.70;99.90;;;;;;5019125;28;20034;-64
2023/09/02 00:56:08;;;;;;;5.35;1.73;;;15.80;99.90;;;;;;5019187;28;20018;-70
2023/09/02 00:58:34;;;;;;;8.50;1.92;;;15.80;99.90;;;;;;5018682;28;20026;-65
2023/09/02 01:01:03;;;;;;;4.45;1.92;;;15.80;99.90;;;;;;5019363;28;20025;-65
2023/09/02 01:03:28;;;;;;;7.93;2.20;;;15.80;99.90;;;;;;5018468;28;20062;-69
2023/09/02 01:05:54;;;;;;;11.35;1.85;;;15.90;99.90;;;;;;5019563;28;20061;-65
2023/09/02 01:08:20;;;;;;;2.47;1.50;;;15.80;99.90;;;;;;5018526;28;20084;-64
2023/09/02 01:10:47;;;;;;;7.80;1.92;;;15.90;99.90;;;;;;5018939;28;20032;-65
2023/09/02 01:13:13;;;;;;;6.20;2.17;;;15.90;99.90;;;;;;5018898;28;20034;-70
2023/09/02 01:15:38;;;;;;;5.00;2.22;;;15.90;99.90;;;;;;5018955;28;20022;-70
2023/09/02 01:18:04;;;;;;;1.77;1.60;;;15.90;99.90;;;;;;5020094;28;20056;-64
2023/09/02 01:20:40;;;;;;;4.50;1.77;;;15.80;99.90;;;;;;5019182;28;20022;-69
2023/09/02 01:23:45;;;;;;;4.47;1.58;;;15.80;99.90;;;;;;5018191;28;20030;-65
2023/09/02 01:26:55;;;;;;;4.18;2.00;;;15.80;99.90;;;;;;5019414;28;20076;-65
2023/09/02 01:29:24;;;;;;;11.02;2.40;;;15.80;99.90;;;;;;5018988;28;20029;-64
2023/09/02 01:31:52;;;;;;;3.70;2.15;;;15.90;99.90;;;;;;5018682;28;20019;-65
2023/09/02 01:34:19;;;;;;;6.10;2.40;;;15.90;99.90;;;;;;5018048;28;20027;-65
2023/09/02 01:36:46;;;;;;;11.10;3.40;;;16.00;99.90;;;;;;5019003;28;20030;-70
2023/09/02 01:39:14;;;;;;;8.15;3.50;;;16.00;99.90;;;;;;5018172;28;20034;-64
2023/09/02 01:41:41;;;;;;;27.85;5.35;;;16.00;99.90;;;;;;5017938;28;20037;-64
2023/09/02 01:44:08;;;;;;;17.42;4.90;;;16.00;99.90;;;;;;5017994;28;20030;-64
2023/09/02 01:46:34;;;;;;;52.50;5.85;;;16.00;99.90;;;;;;5018993;28;20053;-70
2023/09/02 01:49:01;;;;;;;37.10;4.75;;;15.90;99.90;;;;;;5017774;28;20056;-64
2023/09/02 01:51:28;;;;;;;7.95;4.30;;;15.80;99.90;;;;;;5017223;28;20122;-64
2023/09/02 01:53:53;;;;;;;7.93;4.13;;;15.80;99.90;;;;;;5018293;28;20018;-64
2023/09/02 01:56:19;;;;;;;27.20;4.95;;;15.90;99.90;;;;;;5017711;28;20022;-70
2023/09/02 01:58:45;;;;;;;53.20;6.20;;;16.00;99.90;;;;;;5017704;28;20033;-64
2023/09/02 02:01:11;;;;;;;47.30;6.03;;;15.90;99.90;;;;;;5018557;28;20116;-66
2023/09/02 02:03:40;;;;;;;34.67;5.15;;;15.80;99.90;;;;;;5017425;28;20026;-64
2023/09/02 02:06:09;;;;;;;69.85;6.75;;;15.60;99.90;;;;;;5017738;28;20028;-64
2023/09/02 02:08:55;;;;;;;39.42;4.88;;;15.50;99.90;;;;;;5018520;28;20045;-70
2023/09/02 02:11:22;;;;;;;43.03;5.15;;;15.40;99.90;;;;;;5018353;28;20120;-70
2023/09/02 02:13:51;;;;;;;25.40;4.82;;;15.50;99.90;;;;;;5017538;28;20104;-66
2023/09/02 02:16:16;;;;;;;53.85;5.05;;;15.40;99.90;;;;;;5017223;28;20029;-69
2023/09/02 02:18:42;;;;;;;26.63;4.55;;;15.30;99.90;;;;;;5017155;28;20029;-69
2023/09/02 02:21:08;;;;;;;11.35;3.60;;;15.30;99.90;;;;;;5017217;28;20080;-70
2023/09/02 02:23:33;;;;;;;27.33;4.30;;;15.40;99.90;;;;;;5018279;28;20022;-65
2023/09/02 02:26:01;;;;;;;32.10;4.45;;;15.50;99.90;;;;;;5017123;28;20125;-70
2023/09/02 02:28:27;;;;;;;6.05;2.97;;;15.50;99.90;;;;;;5017077;28;20026;-64
2023/09/02 02:30:52;;;;;;;56.17;5.70;;;15.60;99.90;;;;;;5016936;28;20032;-64
2023/09/02 02:33:18;;;;;;;7.82;3.78;;;15.70;99.90;;;;;;5017933;28;20108;-70
2023/09/02 02:35:43;;;;;;;19.02;4.10;;;15.70;99.90;;;;;;5016956;28;20028;-66
2023/09/02 02:38:08;;;;;;;44.33;4.82;;;15.80;99.90;;;;;;5017033;28;20029;-65
2023/09/02 02:40:35;;;;;;;37.50;4.25;;;15.70;99.90;;;;;;5017173;28;20030;-70
2023/09/02 02:43:01;;;;;;;58.67;5.15;;;15.60;99.90;;;;;;5017721;28;20033;-70
2023/09/02 02:45:27;;;;;;;71.97;6.68;;;15.50;99.90;;;;;;5016761;28;20025;-64
2023/09/02 02:47:53;;;;;;;66.60;5.95;;;15.50;99.90;;;;;;5016609;28;20029;-64
2023/09/02 02:50:18;;;;;;;52.00;5.75;;;15.50;99.90;;;;;;5017070;28;20157;-70
2023/09/02 02:52:44;;;;;;;47.42;5.53;;;15.50;99.90;;;;;;5017186;28;20037;-69
2023/09/02 02:55:09;;;;;;;23.83;4.90;;;15.50;99.90;;;;;;5016659;28;20026;-64
2023/09/02 02:57:35;;;;;;;74.13;5.78;;;15.50;99.90;;;;;;5017220;28;20022;-64
2023/09/02 03:00:00;;;;;;;26.45;4.82;;;15.40;99.90;;;;;;5017041;28;20026;-64
2023/09/02 03:02:26;;;;;;;21.15;4.10;;;15.40;99.90;;;;;;5016643;28;20100;-70
2023/09/02 03:04:51;;;;;;;70.72;6.32;;;15.30;99.90;;;;;;5016961;28;20108;-70
2023/09/02 03:07:18;;;;;;;28.20;4.93;;;15.40;99.90;;;;;;5016467;28;20029;-70
2023/09/02 03:09:43;;;;;;;38.60;5.65;;;15.30;99.90;;;;;;5016490;28;20095;-70
2023/09/02 03:12:09;;;;;;;69.55;6.38;;;15.30;99.90;;;;;;5016396;28;20089;-70
2023/09/02 03:14:35;;;;;;;21.10;5.00;;;15.30;99.90;;;;;;5017400;28;20022;-65
2023/09/02 03:17:00;;;;;;;26.13;4.80;;;15.30;99.90;;;;;;5016385;28;20022;-65
2023/09/02 03:19:26;;;;;;;7.38;4.13;;;15.30;99.90;;;;;;5016358;28;20037;-70
2023/09/02 03:21:51;;;;;;;77.30;6.45;;;15.40;99.90;;;;;;5017128;28;20022;-70
2023/09/02 03:24:17;;;;;;;48.63;5.68;;;15.40;99.90;;;;;;5016244;28;20111;-70
2023/09/02 03:26:43;;;;;;;39.58;5.40;;;15.30;99.90;;;;;;5016250;28;20112;-65
2023/09/02 03:29:08;;;;;;;62.13;5.32;;;15.20;99.90;;;;;;5017098;28;20022;-66
2023/09/02 03:31:34;;;;;;;19.58;5.32;;;15.20;99.90;;;;;;5016168;28;20026;-70
2023/09/02 03:33:59;;;;;;;16.75;5.47;;;15.20;99.90;;;;;;5016601;28;20028;-64
2023/09/02 03:36:25;;;;;;;28.65;5.10;;;15.30;99.90;;;;;;5017068;28;20053;-64
2023/09/02 03:38:50;;;;;;;34.58;5.00;;;15.20;99.90;;;;;;5016484;28;20024;-65
2023/09/02 03:41:17;;;;;;;34.40;4.97;;;15.30;99.90;;;;;;5017003;28;20033;-70
2023/09/02 03:43:44;;;;;;;22.52;4.82;;;15.30;99.90;;;;;;5017024;28;20022;-70
2023/09/02 03:46:10;;;;;;;9.93;3.80;;;15.40;99.90;;;;;;5016800;28;20037;-65
2023/09/02 03:48:36;;;;;;;8.27;3.88;;;15.50;99.90;;;;;;5016229;28;20117;-65
2023/09/02 03:51:11;;;;;;;13.25;4.30;;;15.60;99.90;;;;;;5016103;28;20033;-66
2023/09/02 03:53:37;;;;;;;5.35;3.13;;;15.60;99.90;;;;;;5017436;28;20026;-66
2023/09/02 03:56:03;;;;;;;7.90;3.75;;;15.60;99.90;;;;;;5017281;28;20026;-64
2023/09/02 03:58:29;;;;;;;5.50;3.28;;;15.60;99.90;;;;;;5016493;28;20026;-64
2023/09/02 04:00:56;;;;;;;8.18;3.90;;;15.60;99.90;;;;;;5016206;28;20022;-64
2023/09/02 04:03:24;;;;;;;7.15;4.13;;;15.60;99.90;;;;;;5015867;28;20026;-64
2023/09/02 04:05:49;;;;;;;6.50;3.95;;;15.70;99.90;;;;;;5016340;28;20037;-65
2023/09/02 04:08:17;;;;;;;11.13;4.63;;;15.80;99.90;;;;;;5016056;28;20030;-65
2023/09/02 04:10:43;;;;;;;7.07;4.63;;;15.80;99.90;;;;;;5017150;28;20084;-69
2023/09/02 04:13:09;;;;;;;7.53;3.90;;;15.80;99.90;;;;;;5015792;28;20022;-70
2023/09/02 04:15:34;;;;;;;6.60;4.25;;;15.80;99.90;;;;;;5018936;28;20109;-70
2023/09/02 04:18:00;;;;;;;13.18;4.82;;;15.90;99.90;;;;;;5019915;28;20046;-70
2023/09/02 04:20:26;;;;;;;8.40;4.65;;;16.00;99.90;;;;;;5019351;28;20045;-65
2023/09/02 04:22:52;;;;;;;10.82;3.70;;;16.00;99.90;;;;;;5019827;28;20033;-70
2023/09/02 04:25:19;;;;;;;5.95;3.38;;;16.00;99.90;;;;;;5019463;28;20022;-70
2023/09/02 04:27:45;;;;;;;6.22;4.35;;;16.00;99.90;;;;;;5019325;28;20109;-70
2023/09/02 04:30:11;;;;;;;14.95;4.30;;;16.10;99.90;;;;;;5019481;28;20114;-70
2023/09/02 04:32:37;;;;;;;6.20;3.15;;;16.00;99.90;;;;;;5019228;28;20022;-69
2023/09/02 04:35:03;;;;;;;5.57;3.17;;;16.10;99.90;;;;;;5020634;28;20033;-69
2023/09/02 04:37:28;;;;;;;6.30;3.03;;;16.00;99.90;;;;;;5019088;28;20018;-70
2023/09/02 04:39:54;;;;;;;8.90;3.80;;;16.10;99.90;;;;;;5019172;28;20083;-66
2023/09/02 04:42:19;;;;;;;9.70;4.10;;;16.10;99.90;;;;;;5019329;28;20026;-65
2023/09/02 04:44:45;;;;;;;10.15;2.80;;;16.10;99.90;;;;;;5019002;28;20048;-70
2023/09/02 04:47:12;;;;;;;5.43;3.55;;;16.10;99.90;;;;;;5019103;28;20029;-66
2023/09/02 04:49:37;;;;;;;7.93;3.45;;;16.10;99.90;;;;;;5019174;28;20030;-65
2023/09/02 04:52:03;;;;;;;8.32;3.50;;;16.10;99.90;;;;;;5018905;28;20085;-70
2023/09/02 04:54:30;;;;;;;31.45;5.65;;;16.10;99.90;;;;;;5019604;28;20026;-70
2023/09/02 04:56:55;;;;;;;6.43;3.38;;;16.00;99.90;;;;;;5019105;28;20022;-70
2023/09/02 04:59:21;;;;;;;5.43;3.15;;;16.00;99.90;;;;;;5019678;28;20025;-70
2023/09/02 05:01:46;;;;;;;6.75;3.42;;;16.00;99.90;;;;;;5018995;28;20092;-70
2023/09/02 05:04:12;;;;;;;8.52;4.47;;;16.00;99.90;;;;;;5019040;28;20030;-70
2023/09/02 05:06:37;;;;;;;7.60;3.20;;;16.00;99.90;;;;;;5018882;28;20030;-70
2023/09/02 05:09:03;;;;;;;16.10;3.97;;;16.00;99.90;;;;;;5018762;28;20030;-64
2023/09/02 05:11:29;;;;;;;5.32;3.05;;;16.00;99.90;;;;;;5018619;28;20029;-70
2023/09/02 05:13:54;;;;;;;7.38;3.75;;;16.00;99.90;;;;;;5019453;28;20022;-69
2023/09/02 05:16:20;;;;;;;7.40;3.40;;;15.90;99.90;;;;;;5019505;28;20049;-70
2023/09/02 05:18:45;;;;;;;7.07;4.13;;;15.80;99.90;;;;;;5018529;28;20030;-69
2023/09/02 05:21:11;;;;;;;16.25;6.28;;;15.80;99.90;;;;;;5019068;28;20025;-69
2023/09/02 05:23:36;;;;;;;15.45;5.68;;;15.70;99.90;;;;;;5018669;28;20033;-70
2023/09/02 05:26:02;;;;;;;16.05;6.40;;;15.70;99.90;;;;;;5018283;28;20033;-65
2023/09/02 05:28:28;;;;;;;17.90;6.43;;;15.60;99.90;;;;;;5019005;28;20089;-65
2023/09/02 05:30:54;;;;;;;15.35;5.70;;;15.50;99.90;;;;;;5018452;28;20022;-69
2023/09/02 05:33:19;;;;;;;25.90;6.00;;;15.50;99.90;;;;;;5018428;28;20104;-70
2023/09/02 05:35:45;;;;;;;27.95;6.03;;;15.50;99.90;;;;;;5019124;28;20030;-69
2023/09/02 05:38:10;;;;;;;11.73;5.05;;;15.40;99.90;;;;;;5018392;28;20026;-70
2023/09/02 05:40:41;;;;;;;20.88;5.78;;;15.50;99.90;;;;;;5018266;28;20125;-66
2023/09/02 05:43:06;;;;;;;26.45;6.85;;;15.50;99.90;;;;;;5018526;28;20085;-65
2023/09/02 05:45:32;;;;;;;25.10;5.43;;;15.40;99.90;;;;;;5018191;28;20033;-65
2023/09/02 05:47:57;;;;;;;18.83;4.10;;;15.50;99.90;;;;;;5018363;28;20121;-70
2023/09/02 05:50:23;;;;;;;13.52;4.97;;;15.50;99.90;;;;;;5018977;28;20026;-70
2023/09/02 05:52:48;;;;;;;16.05;4.25;;;15.60;99.90;;;;;;5017585;28;20121;-64
2023/09/02 05:55:14;;;;;;;9.95;4.28;;;15.60;99.90;;;;;;5017641;28;20053;-64
2023/09/02 05:57:39;;;;;;;6.72;3.25;;;15.60;99.90;;;;;;5018092;28;20029;-65
2023/09/02 06:00:06;;;;;;;8.10;3.92;;;15.70;99.90;;;;;;5017867;28;20080;-66
2023/09/02 06:02:34;;;;;;;7.45;3.20;;;15.80;99.90;;;;;;5017414;28;20022;-70
2023/09/02 06:05:00;;;;;;;7.13;3.38;;;15.90;99.90;;;;;;5017509;28;20026;-66
2023/09/02 06:07:25;;;;;;;5.65;2.75;;;15.90;99.90;;;;;;5017429;28;20032;-65
2023/09/02 06:09:51;;;;;;;8.15;3.35;;;15.90;99.90;;;;;;5017446;28;20029;-65
2023/09/02 06:12:17;;;;;;;4.72;2.38;;;15.90;99.90;;;;;;5018210;28;20018;-64
2023/09/02 06:14:42;;;;;;;9.25;3.00;;;16.00;99.90;;;;;;5017660;28;20026;-70
2023/09/02 06:17:08;;;;;;;5.05;2.60;;;16.00;99.90;;;;;;5017726;28;20061;-70
2023/09/02 06:19:34;;;;;;;3.60;1.95;;;16.00;99.90;;;;;;5017235;28;20022;-70
2023/09/02 06:22:00;;;;;;;7.43;3.03;;;16.00;99.90;;;;;;5017719;28;20030;-70
2023/09/02 06:24:27;;;;;;;10.60;3.50;;;15.90;99.90;;;;;;5017608;28;20034;-65
2023/09/02 06:26:53;;;;;;;5.10;2.58;;;16.00;99.90;;;;;;5017312;28;20040;-65
2023/09/02 06:29:18;;;;;;;4.30;2.03;;;16.00;99.90;;;;;;5017283;28;20021;-70
2023/09/02 06:31:45;;;;;;;3.45;1.65;;;16.00;99.90;;;;;;5017270;28;20022;-69
2023/09/02 06:34:11;;;;;;;3.25;1.92;;;16.10;99.90;;;;;;5017503;28;20032;-69
2023/09/02 06:36:36;;;;;;;4.07;2.45;;;16.10;99.90;;;;;;5017483;28;20022;-70
2023/09/02 06:39:03;;;;;;;4.78;2.15;;;16.10;99.90;;;;;;5017500;28;20097;-64
2023/09/02 06:41:29;;;;;;;4.55;2.15;;;16.00;99.90;;;;;;5017108;28;20033;-64
2023/09/02 06:43:54;;;;;;;4.95;2.33;;;15.90;99.90;;;;;;5017272;28;20022;-64
2023/09/02 06:46:20;;;;;;;3.85;2.17;;;15.90;99.90;;;;;;5016858;28;20026;-69
2023/09/02 06:48:47;;;;;;;4.00;2.00;;;16.00;99.90;;;;;;5017183;28;20134;-70
2023/09/02 06:51:14;;;;;;;2.90;2.00;;;16.20;99.90;;;;;;5016846;28;20025;-66
2023/09/02 06:53:40;;;;;;;4.10;2.15;;;16.30;99.90;;;;;;5016838;28;20034;-66
2023/09/02 06:56:08;;;;;;;2.65;1.80;;;16.40;99.90;;;;;;5016911;28;20025;-65
2023/09/02 06:58:34;;;;;;;4.35;2.40;;;16.40;99.90;;;;;;5017029;28;20084;-65
2023/09/02 07:01:00;;;;;;;4.38;2.40;;;16.30;99.90;;;;;;5016390;28;20022;-65
2023/09/02 07:03:25;;;;;;;3.60;2.05;;;16.20;99.90;;;;;;5016506;28;20036;-65
2023/09/02 07:05:51;;;;;;;5.95;2.67;;;16.10;99.90;;;;;;5016872;28;20048;-70
2023/09/02 07:08:16;;;;;;;3.50;1.98;;;16.00;99.90;;;;;;5016467;28;20025;-70
2023/09/02 07:10:42;;;;;;;4.35;2.20;;;15.90;99.90;;;;;;5017636;28;20045;-69
2023/09/02 07:13:08;;;;;;;4.95;2.28;;;15.90;99.90;;;;;;5016431;28;20026;-66
2023/09/02 07:15:35;;;;;;;4.45;2.10;;;16.00;99.90;;;;;;5016440;28;20022;-69
2023/09/02 07:18:01;;;;;;;4.80;2.47;;;16.10;99.90;;;;;;5017536;28;20030;-64
2023/09/02 07:20:27;;;;;;;3.72;1.90;;;16.10;99.90;;;;;;5016629;28;20026;-65
2023/09/02 07:22:53;;;;;;;3.53;1.85;;;16.20;99.90;;;;;;5016383;28;20029;-70
2023/09/02 07:25:18;;;;;;;4.75;2.58;;;16.30;99.90;;;;;;5016536;28;20026;-69
2023/09/02 07:27:44;;;;;;;4.30;1.92;;;16.40;99.90;;;;;;5016542;28;20028;-64
2023/09/02 07:30:10;;;;;;;4.45;2.50;;;16.30;99.90;;;;;;5016872;28;20018;-70
2023/09/02 07:32:35;;;;;;;3.42;2.05;;;16.30;99.90;;;;;;5016152;28;20045;-71
2023/09/02 07:35:01;;;;;;;5.82;2.47;;;16.40;99.90;;;;;;5016629;28;20018;-70
2023/09/02 07:37:26;;;;;;;3.08;1.90;;;16.40;99.90;;;;;;5017085;28;20098;-70
2023/09/02 07:39:53;;;;;;;2.92;1.85;;;16.50;99.90;;;;;;5016172;28;20026;-70
2023/09/02 07:42:18;;;;;;;3.22;2.00;;;16.70;99.90;;;;;;5016923;28;20026;-70
2023/09/02 07:44:44;;;;;;;2.92;2.20;;;16.70;99.90;;;;;;5017211;28;20026;-70
2023/09/02 07:47:09;;;;;;;3.05;2.17;;;16.80;99.90;;;;;;5017160;28;20121;-70
2023/09/02 07:49:35;;;;;;;3.50;2.05;;;16.90;99.90;;;;;;5017858;28;20026;-66
2023/09/02 07:52:00;;;;;;;4.10;2.08;;;16.80;99.90;;;;;;5020162;28;20030;-70
2023/09/02 07:54:26;;;;;;;2.95;2.25;;;16.70;99.90;;;;;;5019994;28;20018;-65
2023/09/02 07:56:51;;;;;;;3.70;2.20;;;16.50;99.90;;;;;;5019828;28;20026;-65
2023/09/02 07:59:17;;;;;;;2.30;1.80;;;16.30;99.90;;;;;;5020325;28;20168;-65
2023/09/02 08:01:42;;;;;;;4.85;3.25;;;16.20;99.90;;;;;;5019742;28;20071;-65
2023/09/02 08:04:08;;;;;;;4.43;2.65;;;16.20;99.90;;;;;;5019797;28;20120;-70
2023/09/02 08:06:33;;;;;;;3.50;2.35;;;16.50;99.90;;;;;;5019648;28;20076;-65
2023/09/02 08:08:59;;;;;;;4.00;2.30;;;16.70;99.90;;;;;;5019624;28;20022;-65
2023/09/02 08:11:24;;;;;;;5.88;2.20;;;16.70;99.90;;;;;;5019947;28;20093;-65
2023/09/02 08:13:50;;;;;;;5.45;2.90;;;16.60;99.90;;;;;;5019600;28;20033;-64
2023/09/02 08:16:15;;;;;;;6.90;2.75;;;16.60;99.90;;;;;;5020668;28;20121;-64
2023/09/02 08:18:41;;;;;;;4.20;2.72;;;16.70;99.90;;;;;;5019908;28;20022;-65
2023/09/02 08:21:08;;;;;;;3.30;2.63;;;16.70;99.90;;;;;;5019479;28;20025;-70
2023/09/02 08:23:34;;;;;;;5.65;3.25;;;16.90;99.90;;;;;;5019727;28;20029;-69
2023/09/02 08:26:05;;;;;;;6.20;3.00;;;17.00;99.90;;;;;;5019604;28;20072;-69
2023/09/02 08:28:31;;;;;;;5.00;2.92;;;16.90;99.90;;;;;;5020229;28;20032;-69
2023/09/02 08:30:56;;;;;;;5.85;3.00;;;16.90;99.90;;;;;;5020269;28;20030;-64
2023/09/02 08:33:22;;;;;;;4.00;2.58;;;16.90;99.90;;;;;;5019211;28;20033;-64
2023/09/02 08:35:47;;;;;;;4.57;3.13;;;17.00;99.90;;;;;;5019828;28;20037;-64
2023/09/02 08:38:13;;;;;;;4.03;2.78;;;17.20;99.90;;;;;;5019252;28;20037;-65
2023/09/02 08:40:43;;;;;;;5.57;3.03;;;17.30;99.90;;;;;;5019958;28;20032;-65
2023/09/02 08:43:09;;;;;;;5.15;3.35;;;17.40;99.90;;;;;;5019889;28;20141;-65
2023/09/02 08:45:36;;;;;;;6.50;3.67;;;17.30;99.90;;;;;;5019980;28;20026;-65
2023/09/02 08:48:05;;;;;;;7.18;4.03;;;17.40;99.90;;;;;;5019313;28;20089;-70
2023/09/02 08:50:31;;;;;;;6.07;3.60;;;17.30;99.90;;;;;;5019529;28;20044;-65
2023/09/02 08:52:57;;;;;;;6.57;3.65;;;17.30;99.90;;;;;;5019349;28;20057;-65
2023/09/02 08:55:22;;;;;;;3.83;2.88;;;17.20;99.90;;;;;;5018807;28;20049;-65
2023/09/02 08:57:49;;;;;;;2.63;2.17;;;17.30;99.90;;;;;;5019771;28;20033;-65
2023/09/02 09:00:14;;;;;;;3.17;2.63;;;17.30;99.90;;;;;;5018357;28;20026;-65
2023/09/02 09:02:41;;;;;;;3.38;2.42;;;17.50;99.90;;;;;;5018108;28;20028;-65
2023/09/02 09:05:08;;;;;;;4.72;2.95;;;17.40;99.90;;;;;;5019047;28;20076;-65
2023/09/02 09:07:36;;;;;;;4.70;2.92;;;17.30;99.90;;;;;;5018834;28;20029;-65
2023/09/02 09:10:02;;;;;;;4.22;3.10;;;17.30;99.90;;;;;;5019236;28;20029;-65
2023/09/02 09:12:32;;;;;;;5.28;2.90;;;17.20;99.90;;;;;;5018966;28;20026;-65
2023/09/02 09:15:00;;;;;;;4.32;2.75;;;17.20;99.90;;;;;;5018941;28;20026;-65
2023/09/02 09:17:27;;;;;;;5.28;3.25;;;17.40;99.90;;;;;;5019212;28;20032;-65
2023/09/02 09:19:53;;;;;;;3.58;2.67;;;17.30;99.90;;;;;;5018440;28;20026;-65
2023/09/02 09:22:19;;;;;;;3.30;2.85;;;17.30;99.90;;;;;;5018275;28;20022;-65
2023/09/02 09:24:44;;;;;;;3.70;2.63;;;17.50;99.90;;;;;;5019382;28;20029;-66
2023/09/02 09:27:10;;;;;;;3.38;2.60;;;17.50;99.90;;;;;;5018287;28;20076;-65
2023/09/02 09:29:41;;;;;;;4.43;2.55;;;17.50;99.90;;;;;;5018076;28;20026;-65
2023/09/02 09:32:12;;;;;;;4.45;2.67;;;17.50;99.90;;;;;;5019117;28;20050;-70
2023/09/02 09:34:41;;;;;;;3.15;2.55;;;17.50;99.90;;;;;;5018203;28;20022;-70
2023/09/02 09:37:08;;;;;;;4.10;2.92;;;17.60;99.90;;;;;;5018105;28;20057;-70
2023/09/02 09:39:45;;;;;;;4.22;2.88;;;17.50;99.90;;;;;;5018092;28;20032;-70
2023/09/02 09:42:13;;;;;;;3.00;2.58;;;17.60;99.90;;;;;;5018407;28;20088;-71
2023/09/02 09:44:55;;;;;;;2.72;2.30;;;17.80;99.90;;;;;;5018300;28;20034;-70
2023/09/02 09:47:22;;;;;;;2.42;1.80;;;17.80;99.90;;;;;;5018803;28;20068;-70
2023/09/02 09:49:49;;;;;;;2.97;1.88;;;17.90;99.90;;;;;;5017956;28;20022;-70
2023/09/02 09:52:16;;;;;;;2.75;2.22;;;18.00;99.90;;;;;;5017683;28;20053;-70
2023/09/02 09:54:52;;;;;;;2.72;2.17;;;18.10;99.90;;;;;;5018564;28;20034;-70
2023/09/02 09:57:29;;;;;;;2.80;2.00;;;18.20;99.90;;;;;;5017794;28;20108;-70
2023/09/02 09:59:55;;;;;;;2.20;2.00;;;18.20;99.90;;;;;;5017845;28;20030;-70
2023/09/02 10:02:22;;;;;;;3.35;1.63;;;18.30;99.90;;;;;;5017962;28;20083;-70
2023/09/02 10:04:52;;;;;;;2.00;1.80;;;18.40;99.90;;;;;;5017545;28;20113;-70
2023/09/02 10:07:22;;;;;;;2.25;1.73;;;18.50;99.90;;;;;;5018273;28;20027;-70
2023/09/02 10:09:47;;;;;;;1.90;1.02;;;18.70;99.90;;;;;;5017611;28;20030;-70
2023/09/02 10:12:17;;;;;;;1.48;1.38;;;19.10;99.90;;;;;;5018143;28;20032;-70
2023/09/02 10:14:45;;;;;;;1.13;1.02;;;19.30;99.90;;;;;;5017513;28;20050;-70
2023/09/02 10:17:10;;;;;;;2.03;1.50;;;19.40;99.90;;;;;;5018101;28;20033;-70
2023/09/02 10:19:37;;;;;;;1.20;1.10;;;19.50;99.90;;;;;;5017426;28;20026;-70
2023/09/02 10:22:03;;;;;;;2.55;0.93;;;19.80;99.90;;;;;;5017715;28;20030;-70
2023/09/02 10:24:32;;;;;;;2.38;1.20;;;20.10;99.90;;;;;;5017968;28;20022;-70
2023/09/02 10:27:05;;;;;;;1.52;1.10;;;20.30;99.90;;;;;;5017452;28;20029;-70
2023/09/02 10:29:34;;;;;;;1.25;1.00;;;20.60;99.90;;;;;;5017665;28;20125;-70
2023/09/02 10:32:09;;;;;;;0.88;0.85;;;20.80;99.90;;;;;;5017044;28;20022;-70
2023/09/02 10:35:06;;;;;;;0.82;0.70;;;21.00;99.90;;;;;;5017699;28;20018;-70
2023/09/02 10:37:43;;;;;;;1.95;0.70;;;21.00;99.90;;;;;;5017924;28;20025;-70
2023/09/02 10:40:15;;;;;;;1.02;0.90;;;21.30;99.90;;;;;;5016947;28;20033;-70
2023/09/02 10:42:41;;;;;;;1.95;0.93;;;21.30;99.90;;;;;;5017063;28;20026;-70
2023/09/02 10:45:07;;;;;;;1.85;1.40;;;21.40;99.90;;;;;;5017215;28;20026;-71
2023/09/02 10:47:32;;;;;;;1.27;1.15;;;21.60;99.90;;;;;;5016766;28;20026;-70
2023/09/02 10:49:58;;;;;;;3.15;1.70;;;21.90;99.90;;;;;;5017912;28;20046;-70
2023/09/02 10:52:24;;;;;;;5.65;3.05;;;22.00;99.90;;;;;;5016550;28;20045;-70
2023/09/02 10:55:09;;;;;;;2.85;1.85;;;22.20;99.90;;;;;;5017091;28;20026;-70
2023/09/02 10:57:45;;;;;;;3.35;1.50;;;22.20;99.90;;;;;;5016930;28;20033;-70
2023/09/02 11:00:32;;;;;;;2.30;1.27;;;22.30;99.90;;;;;;5017491;28;20022;-71
2023/09/02 11:02:58;;;;;;;1.30;1.10;;;23.00;99.90;;;;;;5016061;28;20037;-71
2023/09/02 11:05:27;;;;;;;1.30;1.20;;;24.20;99.90;;;;;;5016352;28;20034;-71
2023/09/02 11:07:53;;;;;;;2.72;1.45;;;24.60;99.90;;;;;;5016569;28;20089;-70
2023/09/02 11:10:20;;;;;;;1.98;1.40;;;25.00;99.90;;;;;;5016519;28;20028;-71
2023/09/02 11:13:12;;;;;;;1.85;1.38;;;24.70;99.90;;;;;;5017000;28;20045;-70
2023/09/02 11:15:37;;;;;;;2.55;1.30;;;24.20;99.90;;;;;;5012140;28;20040;-70
2023/09/02 11:18:26;;;;;;;1.73;1.23;;;23.90;99.90;;;;;;5016702;28;20021;-70
2023/09/02 11:20:52;;;;;;;1.65;1.23;;;24.10;99.90;;;;;;5016405;28;20022;-71
2023/09/02 11:23:21;;;;;;;1.38;1.15;;;24.20;99.90;;;;;;5016204;28;20026;-71
2023/09/02 11:25:58;;;;;;;1.20;0.70;;;23.80;99.90;;;;;;5015970;28;20026;-70
2023/09/02 11:28:24;;;;;;;1.40;1.00;;;23.90;99.90;;;;;;5017051;28;20077;-70
2023/09/02 11:31:12;;;;;;;3.50;1.25;;;24.00;99.90;;;;;;5016305;28;20022;-71
2023/09/02 11:33:45;;;;;;;2.70;1.30;;;24.30;99.90;;;;;;5016236;28;20026;-70
2023/09/02 11:36:18;;;;;;;2.78;1.08;;;24.30;99.90;;;;;;5017072;28;20030;-71
2023/09/02 11:38:44;;;;;;;1.67;0.80;;;24.70;99.90;;;;;;5016724;28;20032;-71
2023/09/02 11:41:19;;;;;;;2.50;0.98;;;25.10;99.90;;;;;;5016447;28;20029;-71
2023/09/02 11:43:45;;;;;;;1.50;0.70;;;25.50;99.90;;;;;;5016483;28;20028;-70
2023/09/02 11:46:10;;;;;;;2.40;0.70;;;25.50;99.90;;;;;;5016992;28;20112;-71
2023/09/02 11:48:36;;;;;;;2.15;0.88;;;25.50;99.90;;;;;;5016084;28;20030;-70
2023/09/02 11:51:01;;;;;;;2.05;0.98;;;25.50;99.90;;;;;;5016284;28;20069;-70
2023/09/02 11:53:31;;;;;;;1.35;0.80;;;25.80;99.90;;;;;;5015916;28;20037;-70
2023/09/02 11:55:57;;;;;;;2.03;0.88;;;25.50;99.90;;;;;;5016149;28;20033;-71
2023/09/02 11:58:23;;;;;;;1.60;0.88;;;25.40;99.90;;;;;;5016072;28;20026;-70
2023/09/02 12:00:50;;;;;;;0.90;0.80;;;25.70;99.90;;;;;;5015981;28;20088;-70
2023/09/02 12:03:27;;;;;;;0.80;0.70;;;25.80;99.90;;;;;;5016214;28;20053;-71
2023/09/02 12:05:59;;;;;;;0.90;0.90;;;26.80;99.90;;;;;;5017059;28;20045;-71
2023/09/02 12:08:26;;;;;;;1.25;0.88;;;28.50;99.90;;;;;;5016021;28;20063;-71
2023/09/02 12:10:52;;;;;;;1.05;0.80;;;29.20;99.90;;;;;;5015888;28;20053;-71
2023/09/02 12:13:17;;;;;;;3.85;1.10;;;28.60;99.90;;;;;;5016058;28;20065;-71
2023/09/02 12:15:51;;;;;;;2.17;1.05;;;28.30;99.90;;;;;;5016202;28;20049;-71
2023/09/02 12:18:18;;;;;;;1.25;0.88;;;27.90;99.90;;;;;;5015814;28;20029;-71
2023/09/02 12:20:44;;;;;;;0.60;0.60;;;28.60;99.90;;;;;;5016775;28;20203;-71
2023/09/02 12:23:10;;;;;;;1.63;0.68;;;30.00;99.90;;;;;;5016098;28;20029;-70
2023/09/02 12:25:36;;;;;;;1.08;0.95;;;29.70;99.90;;;;;;5016161;28;20018;-71
2023/09/02 12:28:13;;;;;;;0.85;0.85;;;29.30;99.90;;;;;;5015881;28;20026;-71
2023/09/02 12:30:39;;;;;;;1.42;0.80;;;28.60;99.90;;;;;;5015876;28;20080;-71
2023/09/02 12:33:05;;;;;;;0.85;0.85;;;28.00;99.90;;;;;;5016074;28;20057;-71
2023/09/02 12:35:31;;;;;;;1.67;0.80;;;28.00;99.90;;;;;;5017910;28;20022;-71
2023/09/02 12:38:05;;;;;;;0.93;0.70;;;28.00;99.90;;;;;;5019528;28;20057;-71
2023/09/02 12:40:31;;;;;;;0.60;0.60;;;28.20;99.90;;;;;;5020009;28;20109;-71
2023/09/02 12:42:58;;;;;;;1.35;0.85;;;28.00;99.90;;;;;;5019104;28;20022;-71
2023/09/02 12:45:40;;;;;;;0.77;0.77;;;27.80;99.90;;;;;;5019231;28;20025;-71